createdAt,value
2022-10-16T15:46:27.614Z,1.00
2022-10-16T15:48:57.763Z,0.90
2022-10-16T15:51:24.819Z,0.73
2022-10-16T15:53:52.015Z,0.70
2022-10-16T15:56:18.423Z,0.80
2022-10-16T15:58:44.938Z,0.90
2022-10-16T16:01:12.003Z,0.85
2022-10-16T16:03:41.355Z,0.70
2022-10-16T16:06:10.499Z,0.98
2022-10-16T16:08:37.759Z,0.80
2022-10-16T16:11:07.047Z,1.00
2022-10-16T16:13:33.423Z,0.95
2022-10-16T16:16:00.230Z,0.70
2022-10-16T16:18:26.773Z,0.90
2022-10-16T16:20:53.391Z,0.73
2022-10-16T16:23:20.756Z,1.10
2022-10-16T16:26:03.784Z,0.90
2022-10-16T16:28:31.173Z,1.08
2022-10-16T16:30:57.876Z,0.98
2022-10-16T16:33:24.936Z,1.00
2022-10-16T16:35:51.328Z,1.10
2022-10-16T16:38:17.695Z,1.33
2022-10-16T16:40:44.418Z,1.40
2022-10-16T16:43:10.823Z,1.20
2022-10-16T16:45:37.257Z,1.60
2022-10-16T16:48:03.736Z,1.80
2022-10-16T16:50:30.092Z,1.85
2022-10-16T16:52:56.453Z,2.20
2022-10-16T16:55:22.825Z,1.90
2022-10-16T16:57:49.264Z,2.22
2022-10-16T17:00:15.887Z,2.50
2022-10-16T17:02:44.164Z,2.28
2022-10-16T17:05:10.706Z,2.67
2022-10-16T17:07:37.140Z,3.10
2022-10-16T17:10:03.872Z,3.20
2022-10-16T17:12:31.117Z,3.60
2022-10-16T17:14:57.577Z,3.60
2022-10-16T17:17:24.112Z,4.32
2022-10-16T17:19:51.551Z,4.47
2022-10-16T17:22:18.914Z,4.55
2022-10-16T17:24:45.363Z,4.50
2022-10-16T17:27:12.487Z,5.57
2022-10-16T17:29:38.888Z,5.45
2022-10-16T17:32:05.886Z,4.95
2022-10-16T17:34:32.249Z,5.18
2022-10-16T17:36:58.773Z,5.50
2022-10-16T17:39:25.176Z,5.18
2022-10-16T17:41:51.579Z,4.88
2022-10-16T17:44:20.873Z,4.25
2022-10-16T17:46:52.745Z,5.05
2022-10-16T17:49:20.350Z,4.80
2022-10-16T17:51:50.698Z,4.45
2022-10-16T17:54:17.112Z,5.28
2022-10-16T17:56:43.523Z,4.80
2022-10-16T17:59:10.101Z,4.13
2022-10-16T18:01:40.361Z,3.95
2022-10-16T18:04:10.526Z,4.32
2022-10-16T20:03:24.864Z,8.85
2022-10-16T20:05:53.298Z,8.02
2022-10-16T20:08:20.705Z,7.13
2022-10-16T20:10:51.398Z,7.88
2022-10-16T20:13:19.532Z,7.38
2022-10-16T20:15:46.634Z,5.43
2022-10-16T20:18:13.701Z,5.20
2022-10-16T20:20:41.359Z,3.95
2022-10-16T20:23:08.068Z,3.30
2022-10-16T20:25:39.248Z,3.70
2022-10-16T20:28:06.539Z,3.10
2022-10-16T20:30:38.125Z,3.20
2022-10-16T20:33:05.225Z,3.40
2022-10-16T20:35:40.098Z,3.20
2022-10-16T20:38:07.190Z,3.20
2022-10-16T20:40:35.452Z,3.10
2022-10-16T20:43:02.884Z,3.85
2022-10-16T20:45:29.478Z,3.30
2022-10-16T20:47:56.427Z,3.38
2022-10-16T20:50:23.148Z,3.55
2022-10-16T20:52:49.682Z,3.50
2022-10-16T20:55:17.920Z,3.33
2022-10-16T20:57:44.334Z,3.70
2022-10-16T21:00:11.764Z,3.45
2022-10-16T21:02:38.204Z,3.33
2022-10-16T21:05:05.176Z,3.15
2022-10-16T21:07:31.652Z,3.10
2022-10-16T21:09:58.650Z,2.88
2022-10-16T21:12:25.994Z,3.35
2022-10-16T21:15:13.545Z,3.33
2022-10-16T21:17:39.284Z,2.83
2022-10-16T21:20:06.187Z,3.10
2022-10-16T21:22:32.592Z,3.25
2022-10-16T21:24:59.040Z,3.20
2022-10-16T21:27:25.426Z,3.42
2022-10-16T21:29:54.073Z,2.83
2022-10-16T21:32:23.682Z,3.08
2022-10-16T21:34:50.048Z,2.50
2022-10-16T21:37:16.440Z,2.83
2022-10-16T21:39:42.843Z,3.20
2022-10-16T21:42:09.341Z,2.88
2022-10-16T21:44:35.879Z,2.50
2022-10-16T21:47:02.252Z,2.72
2022-10-16T21:49:28.748Z,3.30
2022-10-16T21:51:55.164Z,3.95
2022-10-16T21:54:23.607Z,5.78
2022-10-16T21:56:50.172Z,7.15
2022-10-16T21:59:16.677Z,6.60
2022-10-16T22:01:43.661Z,6.70
2022-10-16T22:04:11.886Z,7.00
2022-10-16T22:06:38.785Z,6.45
2022-10-16T22:09:05.987Z,6.22
2022-10-16T22:11:38.701Z,5.47
2022-10-16T22:14:11.847Z,5.15
2022-10-16T22:16:39.045Z,5.10
2022-10-16T22:19:07.158Z,5.45
2022-10-16T22:21:35.837Z,5.50
2022-10-16T22:24:02.242Z,5.55
2022-10-16T22:26:28.734Z,7.10
2022-10-16T22:28:55.934Z,6.53
2022-10-16T22:31:23.705Z,5.50
2022-10-16T22:34:01.717Z,4.82
2022-10-16T22:36:28.980Z,5.13
2022-10-16T22:38:55.810Z,4.20
2022-10-16T22:41:24.440Z,3.85
2022-10-16T22:43:51.387Z,4.32
2022-10-16T22:46:20.440Z,5.47
2022-10-16T22:48:46.836Z,4.38
2022-10-16T22:51:16.708Z,3.85
2022-10-16T22:53:45.194Z,3.70
2022-10-16T22:56:12.938Z,3.72
2022-10-16T22:58:39.390Z,4.00
2022-10-16T23:01:25.123Z,3.40
2022-10-16T23:03:51.510Z,4.13
2022-10-16T23:06:17.938Z,3.95
2022-10-16T23:08:44.357Z,4.10
2022-10-16T23:11:13.118Z,4.05
2022-10-16T23:13:43.415Z,3.97
2022-10-16T23:16:09.921Z,3.90
2022-10-16T23:18:36.290Z,4.00
2022-10-16T23:21:08.316Z,4.47
2022-10-16T23:23:36.648Z,4.30
2022-10-16T23:26:07.692Z,4.68
2022-10-16T23:28:34.166Z,4.55
2022-10-16T23:31:00.581Z,4.10
2022-10-16T23:33:26.934Z,4.22
2022-10-16T23:35:53.352Z,4.25
2022-10-16T23:38:19.706Z,4.20
2022-10-16T23:40:46.239Z,4.43
2022-10-16T23:43:12.736Z,4.25
2022-10-16T23:45:39.164Z,4.57
2022-10-16T23:48:05.536Z,4.45
2022-10-16T23:50:31.913Z,4.68
2022-10-16T23:52:58.264Z,4.82
2022-10-16T23:55:25.070Z,4.22
2022-10-16T23:57:51.489Z,5.07
